createdAt,value
2023-03-18T00:01:55.163Z,16.83
2023-03-18T00:04:24.309Z,18.00
2023-03-18T00:06:55.594Z,18.10
2023-03-18T00:09:24.298Z,17.10
2023-03-18T00:11:52.768Z,18.73
2023-03-18T00:14:26.100Z,17.47
2023-03-18T00:16:56.100Z,17.93
2023-03-18T00:19:25.186Z,17.60
2023-03-18T00:21:59.791Z,18.30
2023-03-18T00:24:31.033Z,17.37
2023-03-18T00:26:59.148Z,17.30
2023-03-18T00:29:27.346Z,18.03
2023-03-18T00:31:57.004Z,18.13
2023-03-18T00:34:25.982Z,17.00
2023-03-18T00:36:57.114Z,17.70
2023-03-18T00:39:28.828Z,17.67
2023-03-18T00:41:58.191Z,17.57
2023-03-18T00:44:30.738Z,17.40
2023-03-18T00:47:00.464Z,16.90
2023-03-18T00:49:31.670Z,18.20
2023-03-18T00:52:00.664Z,16.80
2023-03-18T00:54:29.058Z,16.80
2023-03-18T00:56:57.812Z,18.37
2023-03-18T00:59:29.684Z,16.87
2023-03-18T01:01:58.419Z,18.40
2023-03-18T01:04:33.925Z,17.03
2023-03-18T01:07:02.687Z,16.07
2023-03-18T01:09:33.190Z,15.13
2023-03-18T01:12:01.470Z,16.60
2023-03-18T01:14:30.142Z,17.70
2023-03-18T01:16:58.374Z,16.00
2023-03-18T01:19:29.141Z,16.07
2023-03-18T01:21:57.728Z,16.97
2023-03-18T01:24:26.681Z,16.30
2023-03-18T01:26:58.103Z,16.60
2023-03-18T01:29:29.546Z,17.00
2023-03-18T01:32:00.481Z,17.63
2023-03-18T01:34:32.693Z,17.60
2023-03-18T01:37:01.583Z,17.17
2023-03-18T01:39:34.248Z,15.90
2023-03-18T01:42:03.430Z,16.67
2023-03-18T01:44:34.267Z,16.50
2023-03-18T01:47:02.411Z,16.73
2023-03-18T01:49:40.383Z,16.33
2023-03-18T01:52:12.767Z,16.30
2023-03-18T01:54:49.471Z,16.50
2023-03-18T01:57:19.191Z,17.23
2023-03-18T01:59:51.766Z,16.47
2023-03-18T02:02:22.609Z,16.33
2023-03-18T02:04:54.142Z,15.90
2023-03-18T02:07:24.465Z,16.70
2023-03-18T02:09:54.178Z,16.67
2023-03-18T02:12:27.881Z,16.10
2023-03-18T02:15:00.556Z,16.60
2023-03-18T02:17:32.804Z,17.60
2023-03-18T02:20:16.115Z,16.93
2023-03-18T02:22:48.754Z,17.30
2023-03-18T02:25:29.302Z,15.93
2023-03-18T02:28:03.511Z,17.20
2023-03-18T02:30:38.272Z,16.60
2023-03-18T02:33:10.190Z,16.90
2023-03-18T02:35:40.051Z,16.67
2023-03-18T02:38:08.473Z,16.57
2023-03-18T02:40:41.777Z,16.60
2023-03-18T02:43:23.948Z,16.77
2023-03-18T02:46:22.302Z,16.00
2023-03-18T02:48:52.741Z,16.67
2023-03-18T02:51:22.027Z,16.10
2023-03-18T02:53:50.864Z,16.90
2023-03-18T02:56:19.233Z,17.20
2023-03-18T02:58:51.306Z,16.90
2023-03-18T03:01:20.674Z,16.00
2023-03-18T03:03:49.758Z,16.50
2023-03-18T03:06:18.049Z,18.00
2023-03-18T03:08:46.807Z,16.07
2023-03-18T03:11:16.268Z,16.50
2023-03-18T03:13:46.531Z,17.07
2023-03-18T03:16:19.276Z,16.50
2023-03-18T03:18:49.736Z,17.40
2023-03-18T03:21:19.963Z,17.10
2023-03-18T03:23:51.532Z,15.73
2023-03-18T03:26:20.485Z,17.10
2023-03-18T03:28:49.402Z,17.17
2023-03-18T03:31:19.191Z,17.57
2023-03-18T03:33:47.803Z,16.43
2023-03-18T03:36:18.457Z,16.53
2023-03-18T03:38:47.328Z,16.50
2023-03-18T03:41:16.174Z,17.60
2023-03-18T03:43:44.946Z,17.10
2023-03-18T03:46:13.797Z,16.27
2023-03-18T03:48:44.210Z,16.30
2023-03-18T03:51:14.782Z,17.70
2023-03-18T03:53:43.813Z,16.23
2023-03-18T03:56:12.922Z,16.73
2023-03-18T03:58:41.081Z,16.40
2023-03-18T04:01:09.385Z,16.27
2023-03-18T04:03:37.886Z,17.20
2023-03-18T04:06:11.421Z,16.33
2023-03-18T04:08:46.816Z,16.70
2023-03-18T04:11:15.280Z,16.40
2023-03-18T04:13:44.076Z,16.83
2023-03-18T04:16:12.387Z,17.03
2023-03-18T04:18:41.464Z,15.20
2023-03-18T04:21:11.513Z,16.10
2023-03-18T04:23:48.132Z,16.53
2023-03-18T04:26:17.918Z,15.90
2023-03-18T04:28:46.286Z,16.50
2023-03-18T04:31:17.186Z,16.10
2023-03-18T04:33:45.775Z,16.80
2023-03-18T04:36:15.521Z,16.53
2023-03-18T04:38:43.739Z,16.47
2023-03-18T04:41:12.334Z,15.77
2023-03-18T04:43:41.623Z,16.70
2023-03-18T04:46:12.024Z,16.23
2023-03-18T04:48:40.963Z,16.17
2023-03-18T04:51:10.785Z,16.30
2023-03-18T04:53:41.144Z,16.00
2023-03-18T04:56:11.084Z,15.90
2023-03-18T04:58:46.950Z,16.30
2023-03-18T05:01:22.597Z,16.20
2023-03-18T05:03:51.379Z,15.93
2023-03-18T05:06:24.706Z,16.43
2023-03-18T05:08:59.591Z,17.50
2023-03-18T05:11:33.200Z,17.60
2023-03-18T05:14:08.516Z,17.03
2023-03-18T05:16:43.348Z,16.90
2023-03-18T05:19:12.106Z,17.23
2023-03-18T05:21:47.846Z,16.40
2023-03-18T05:24:20.641Z,15.83
2023-03-18T05:26:49.455Z,16.33
2023-03-18T05:29:19.397Z,16.40
2023-03-18T05:31:59.417Z,16.67
2023-03-18T05:34:28.660Z,16.50
2023-03-18T05:36:57.652Z,16.10
2023-03-18T05:39:27.876Z,17.60
2023-03-18T05:41:56.606Z,17.50
2023-03-18T05:44:29.462Z,16.70
2023-03-18T05:47:00.831Z,16.50
2023-03-18T05:49:50.481Z,17.47
2023-03-18T05:52:22.352Z,17.20
2023-03-18T05:54:56.521Z,16.20
2023-03-18T05:57:29.852Z,15.97
2023-03-18T06:00:03.074Z,16.17
2023-03-18T06:02:44.813Z,15.67
2023-03-18T06:05:14.973Z,15.10
2023-03-18T06:07:43.574Z,16.17
2023-03-18T06:10:19.743Z,12.70
2023-03-18T06:12:57.334Z,16.47
2023-03-18T06:15:38.300Z,16.03
2023-03-18T06:18:17.694Z,17.47
2023-03-18T06:21:04.272Z,16.70
2023-03-18T06:23:59.940Z,16.53
2023-03-18T06:26:30.751Z,16.60
2023-03-18T06:28:59.039Z,16.30
2023-03-18T06:31:37.827Z,17.20
2023-03-18T06:34:10.731Z,18.60
2023-03-18T06:36:42.812Z,17.87
2023-03-18T06:39:27.195Z,16.90
2023-03-18T06:42:02.513Z,17.07
2023-03-18T06:44:39.847Z,17.13
2023-03-18T06:47:35.999Z,16.30
2023-03-18T06:50:22.488Z,16.40
2023-03-18T06:53:15.344Z,17.00
2023-03-18T06:56:01.818Z,17.83
2023-03-18T06:58:41.749Z,15.93
2023-03-18T07:04:10.161Z,16.30
2023-03-18T07:06:47.975Z,17.10
2023-03-18T07:09:19.797Z,17.07
2023-03-18T07:11:53.582Z,16.47
2023-03-18T07:14:27.292Z,16.70
2023-03-18T07:16:56.887Z,16.77
2023-03-18T07:19:25.289Z,18.00
2023-03-18T07:21:53.503Z,17.47
2023-03-18T07:24:31.716Z,16.63
2023-03-18T07:27:02.763Z,17.30
2023-03-18T07:29:36.195Z,17.40
2023-03-18T07:32:04.633Z,17.20
2023-03-18T07:34:38.206Z,17.70
2023-03-18T07:37:08.780Z,17.37
2023-03-18T07:39:50.801Z,18.43
2023-03-18T07:42:29.892Z,18.80
2023-03-18T07:45:15.764Z,17.07
2023-03-18T07:47:54.268Z,17.30
2023-03-18T07:50:36.626Z,17.60
2023-03-18T07:53:07.545Z,17.60
2023-03-18T07:55:39.098Z,17.50
2023-03-18T07:58:24.301Z,18.00
2023-03-18T08:00:55.422Z,18.10
2023-03-18T08:03:54.487Z,19.00
2023-03-18T08:06:29.317Z,19.00
2023-03-18T08:09:04.266Z,18.60
2023-03-18T08:11:33.290Z,18.40
2023-03-18T08:14:04.219Z,18.70
2023-03-18T08:16:41.658Z,19.50
2023-03-18T08:19:13.328Z,17.57
2023-03-18T08:21:43.005Z,18.00
2023-03-18T08:24:16.542Z,17.63
2023-03-18T08:26:47.907Z,19.17
2023-03-18T08:29:19.418Z,17.93
2023-03-18T08:31:59.266Z,16.97
2023-03-18T08:34:30.638Z,18.47
2023-03-18T08:36:59.270Z,18.13
2023-03-18T08:39:29.564Z,17.10
2023-03-18T08:42:01.003Z,19.20
2023-03-18T08:44:35.790Z,18.50
2023-03-18T08:47:08.264Z,18.30
2023-03-18T08:49:39.448Z,18.37
2023-03-18T08:52:11.888Z,17.80
2023-03-18T08:54:40.373Z,17.80
2023-03-18T08:57:10.830Z,18.63
2023-03-18T08:59:42.289Z,17.83
2023-03-18T09:02:17.327Z,17.93
2023-03-18T09:04:47.442Z,19.83
2023-03-18T09:07:17.951Z,18.70
2023-03-18T09:09:50.740Z,17.37
2023-03-18T09:12:27.488Z,17.20
2023-03-18T09:14:58.994Z,17.93
2023-03-18T09:17:45.298Z,18.33
2023-03-18T09:20:23.452Z,18.73
2023-03-18T09:22:52.473Z,17.30
2023-03-18T09:25:25.905Z,18.20
2023-03-18T09:27:59.984Z,18.30
2023-03-18T09:30:28.998Z,18.47
2023-03-18T09:33:01.879Z,18.33
2023-03-18T09:35:38.235Z,18.50
2023-03-18T09:38:07.415Z,18.23
2023-03-18T09:40:41.396Z,17.80
2023-03-18T09:43:36.340Z,17.90
2023-03-18T09:46:45.849Z,18.43
2023-03-18T09:54:48.840Z,18.30
2023-03-18T09:57:46.284Z,18.70
2023-03-18T10:00:42.550Z,21.03
2023-03-18T10:03:22.670Z,20.00
2023-03-18T10:06:17.718Z,19.30
2023-03-18T10:09:26.175Z,21.57
2023-03-18T10:16:28.614Z,18.10
2023-03-18T10:20:01.775Z,18.80
2023-03-18T10:23:36.631Z,18.43
2023-03-18T10:26:35.348Z,17.93
2023-03-18T10:36:49.690Z,18.70
2023-03-18T10:39:32.734Z,20.43
2023-03-18T10:42:47.630Z,19.17
2023-03-18T10:45:26.245Z,18.43
2023-03-18T10:48:10.426Z,19.20
2023-03-18T10:51:15.263Z,19.23
2023-03-18T10:54:01.701Z,19.20
2023-03-18T10:56:52.298Z,18.53
2023-03-18T10:59:30.981Z,19.70
2023-03-18T11:02:20.569Z,18.53
2023-03-18T11:05:04.725Z,18.47
2023-03-18T11:08:16.895Z,21.40
2023-03-18T11:10:57.775Z,22.67
2023-03-18T11:13:46.369Z,19.37
2023-03-18T11:16:47.225Z,19.40
2023-03-18T11:19:41.784Z,18.80
2023-03-18T11:22:48.377Z,18.30
2023-03-18T11:25:31.589Z,18.03
2023-03-18T11:28:12.752Z,18.37
2023-03-18T11:31:02.027Z,17.50
2023-03-18T11:34:00.527Z,19.93
2023-03-18T11:40:46.431Z,20.90
2023-03-18T11:43:44.129Z,20.53
2023-03-18T11:46:55.192Z,19.70
2023-03-18T11:53:01.689Z,20.83
2023-03-18T11:55:54.657Z,19.10
2023-03-18T11:59:12.303Z,19.70
2023-03-18T12:02:52.715Z,19.30
2023-03-18T12:05:56.427Z,19.50
2023-03-18T12:08:52.924Z,28.80
2023-03-18T12:12:07.917Z,19.50
2023-03-18T12:15:19.781Z,20.13
2023-03-18T12:18:09.649Z,19.20
2023-03-18T12:21:36.191Z,20.27
2023-03-18T12:28:40.306Z,20.20
2023-03-18T12:31:42.257Z,20.80
2023-03-18T12:34:38.990Z,20.13
2023-03-18T12:37:47.634Z,21.53
2023-03-18T12:40:56.789Z,21.70
2023-03-18T12:43:55.069Z,20.37
2023-03-18T12:46:45.659Z,24.97
2023-03-18T12:49:36.021Z,27.63
2023-03-18T12:52:12.128Z,20.73
2023-03-18T12:55:13.714Z,20.10
2023-03-18T12:58:34.691Z,19.70
2023-03-18T13:01:32.934Z,19.23
2023-03-18T13:04:55.458Z,19.87
2023-03-18T13:07:57.237Z,19.47
2023-03-18T13:10:53.814Z,19.60
2023-03-18T13:13:58.863Z,20.10
2023-03-18T13:16:49.737Z,20.13
2023-03-18T13:19:49.851Z,20.57
2023-03-18T13:22:50.090Z,22.27
2023-03-18T13:29:44.974Z,21.50
2023-03-18T13:32:58.162Z,19.67
2023-03-18T13:37:04.685Z,21.60
2023-03-18T13:39:59.639Z,19.43
2023-03-18T13:42:40.044Z,20.93
2023-03-18T13:49:33.952Z,22.57
2023-03-18T13:52:31.562Z,22.50
2023-03-18T13:55:47.806Z,23.77
2023-03-18T13:58:48.351Z,27.80
2023-03-18T14:01:33.548Z,26.00
2023-03-18T14:04:32.165Z,23.17
2023-03-18T14:08:16.080Z,23.70
2023-03-18T14:11:28.773Z,23.13
2023-03-18T14:14:36.841Z,22.00
2023-03-18T14:17:41.488Z,22.40
2023-03-18T14:20:46.492Z,22.17
2023-03-18T14:23:39.276Z,23.00
2023-03-18T14:26:19.479Z,21.50
2023-03-18T14:28:57.701Z,24.87
2023-03-18T14:32:12.844Z,27.10
2023-03-18T14:35:37.617Z,22.07
2023-03-18T14:41:23.892Z,22.00
2023-03-18T14:44:09.209Z,23.03
2023-03-18T14:47:28.150Z,27.70
2023-03-18T14:50:39.571Z,24.57
2023-03-18T14:53:15.687Z,21.33
2023-03-18T14:55:56.501Z,21.90
2023-03-18T14:58:31.581Z,22.27
2023-03-18T15:01:17.857Z,20.90
2023-03-18T15:03:54.911Z,22.77
2023-03-18T15:06:47.886Z,20.97
2023-03-18T15:09:28.640Z,21.23
2023-03-18T15:12:30.570Z,20.67
2023-03-18T15:14:59.001Z,21.07
2023-03-18T15:17:28.646Z,20.93
2023-03-18T15:20:01.124Z,22.00
2023-03-18T15:22:57.444Z,22.53
2023-03-18T15:25:25.977Z,22.20
2023-03-18T15:27:56.061Z,22.90
2023-03-18T15:31:06.673Z,22.77
2023-03-18T15:33:46.658Z,21.83
2023-03-18T15:36:18.529Z,22.73
2023-03-18T15:39:05.745Z,21.80
2023-03-18T15:42:02.051Z,22.10
2023-03-18T15:44:32.726Z,22.70
2023-03-18T15:47:27.183Z,21.90
2023-03-18T15:50:04.837Z,23.40
2023-03-18T15:52:36.956Z,22.90
2023-03-18T15:59:00.033Z,23.57
2023-03-18T16:04:55.281Z,24.00
2023-03-18T16:07:32.690Z,24.17
2023-03-18T16:13:48.246Z,24.00
2023-03-18T16:17:09.918Z,22.60
2023-03-18T16:20:06.460Z,23.50
2023-03-18T16:23:10.438Z,24.00
2023-03-18T16:26:24.101Z,23.60
2023-03-18T16:29:44.087Z,22.87
2023-03-18T16:37:17.002Z,23.57
2023-03-18T16:43:46.972Z,22.97
2023-03-18T16:46:31.035Z,23.03
2023-03-18T16:49:25.111Z,23.37
2023-03-18T16:52:34.643Z,24.23
2023-03-18T16:55:03.750Z,24.40
2023-03-18T16:57:36.715Z,23.60
2023-03-18T17:00:21.550Z,24.43
2023-03-18T17:02:57.406Z,24.83
2023-03-18T17:05:29.879Z,25.97
2023-03-18T17:08:02.144Z,26.60
2023-03-18T17:10:31.813Z,25.00
2023-03-18T17:13:28.225Z,24.60
2023-03-18T17:16:13.840Z,25.70
2023-03-18T17:19:23.252Z,26.40
2023-03-18T17:22:25.213Z,25.63
2023-03-18T17:25:21.870Z,25.17
2023-03-18T17:28:02.768Z,25.20
2023-03-18T17:30:41.383Z,24.20
2023-03-18T17:33:27.671Z,24.90
2023-03-18T17:35:59.997Z,26.20
2023-03-18T17:38:35.417Z,23.97
2023-03-18T17:41:22.248Z,25.40
2023-03-18T17:44:01.397Z,25.30
2023-03-18T17:46:34.587Z,26.37
2023-03-18T17:49:06.178Z,26.10
2023-03-18T17:51:43.250Z,25.37
2023-03-18T17:54:17.293Z,29.20
2023-03-18T17:56:58.951Z,30.30
2023-03-18T17:59:31.654Z,26.83
2023-03-18T18:02:00.852Z,26.37
2023-03-18T18:04:30.038Z,28.10
2023-03-18T18:06:59.209Z,28.00
2023-03-18T18:09:28.682Z,26.10
2023-03-18T18:11:58.922Z,27.20
2023-03-18T18:14:31.940Z,28.30
2023-03-18T18:17:00.629Z,28.93
2023-03-18T18:19:29.450Z,27.53
2023-03-18T18:21:58.730Z,28.17
2023-03-18T18:24:29.766Z,26.10
2023-03-18T18:27:00.033Z,25.20
2023-03-18T18:29:29.703Z,26.60
2023-03-18T18:31:58.378Z,28.00
2023-03-18T18:34:26.733Z,27.17
2023-03-18T18:36:55.029Z,25.10
2023-03-18T18:39:23.288Z,26.73
2023-03-18T18:41:53.012Z,24.70
2023-03-18T18:44:23.423Z,26.47
2023-03-18T18:46:51.912Z,25.20
2023-03-18T18:49:22.956Z,25.47
2023-03-18T18:52:18.655Z,23.90
2023-03-18T18:54:50.625Z,24.83
2023-03-18T18:57:26.810Z,25.03
2023-03-18T19:00:02.703Z,24.50
2023-03-18T19:02:36.616Z,24.90
2023-03-18T19:05:08.154Z,24.83
2023-03-18T19:07:37.974Z,24.97
2023-03-18T19:10:10.957Z,26.10
2023-03-18T19:12:42.058Z,25.03
2023-03-18T19:15:41.702Z,25.07
2023-03-18T19:18:20.046Z,24.43
2023-03-18T19:21:01.636Z,24.40
2023-03-18T19:23:34.396Z,26.30
2023-03-18T19:26:04.393Z,24.73
2023-03-18T19:29:05.693Z,26.67
2023-03-18T19:31:53.808Z,25.70
2023-03-18T19:34:24.301Z,25.47
2023-03-18T19:36:55.744Z,26.97
2023-03-18T19:39:28.375Z,25.70
2023-03-18T19:41:59.810Z,26.97
2023-03-18T19:44:28.617Z,28.97
2023-03-18T19:47:01.279Z,27.73
2023-03-18T19:49:35.188Z,25.50
2023-03-18T19:52:13.101Z,28.10
2023-03-18T19:54:49.864Z,27.13
2023-03-18T19:57:20.266Z,26.27
2023-03-18T20:00:06.604Z,26.07
2023-03-18T20:02:39.982Z,29.10
2023-03-18T20:05:22.407Z,29.60
2023-03-18T20:14:55.280Z,25.43
2023-03-18T20:17:55.557Z,26.10
2023-03-18T20:20:53.113Z,26.93
2023-03-18T20:23:43.428Z,27.33
2023-03-18T20:32:54.887Z,26.73
2023-03-18T20:35:38.757Z,28.03
2023-03-18T20:46:30.180Z,24.30
2023-03-18T20:49:44.896Z,26.87
2023-03-18T20:52:28.102Z,26.27
2023-03-18T20:55:38.378Z,37.30
2023-03-18T21:01:32.284Z,24.97
2023-03-18T21:04:03.613Z,33.27
2023-03-18T21:06:34.224Z,28.07
2023-03-18T21:09:19.874Z,28.30
2023-03-18T21:12:33.667Z,29.43
2023-03-18T21:18:16.835Z,27.40
2023-03-18T21:21:00.073Z,24.43
2023-03-18T21:23:33.764Z,24.50
2023-03-18T21:33:29.949Z,24.93
2023-03-18T21:36:59.076Z,24.00
2023-03-18T21:40:25.009Z,25.73
2023-03-18T21:43:15.477Z,25.77
2023-03-18T21:45:51.257Z,24.90
2023-03-18T21:48:24.076Z,25.63
2023-03-18T21:50:58.653Z,25.10
2023-03-18T21:53:40.267Z,26.10
2023-03-18T21:56:21.441Z,24.20
2023-03-18T21:58:50.031Z,24.60
2023-03-18T22:01:41.562Z,24.97
2023-03-18T22:04:28.541Z,24.60
2023-03-18T22:07:23.229Z,23.30
2023-03-18T22:09:52.014Z,23.17
2023-03-18T22:12:24.798Z,25.00
2023-03-18T22:14:59.971Z,24.40
2023-03-18T22:17:29.898Z,24.70
2023-03-18T22:20:01.895Z,25.20
2023-03-18T22:22:37.793Z,25.80
2023-03-18T22:25:08.746Z,24.47
2023-03-18T22:27:37.091Z,24.83
2023-03-18T22:30:06.810Z,24.77
2023-03-18T22:32:39.157Z,24.17
2023-03-18T22:35:14.994Z,23.50
2023-03-18T22:37:47.969Z,24.50
2023-03-18T22:40:19.181Z,24.50
2023-03-18T22:42:48.524Z,24.80
2023-03-18T22:45:25.065Z,24.20
2023-03-18T22:47:55.354Z,24.60
2023-03-18T22:50:26.500Z,23.90
2023-03-18T22:53:00.652Z,24.67
2023-03-18T22:55:34.803Z,24.93
2023-03-18T22:58:03.103Z,23.60
2023-03-18T23:00:36.224Z,24.30
2023-03-18T23:03:04.703Z,23.90
2023-03-18T23:05:35.111Z,24.03
2023-03-18T23:08:26.424Z,23.33
2023-03-18T23:11:18.805Z,21.90
2023-03-18T23:14:14.331Z,23.70
2023-03-18T23:17:00.020Z,24.50
2023-03-18T23:19:55.694Z,23.83
2023-03-18T23:22:37.048Z,23.70
2023-03-18T23:25:41.424Z,24.10
2023-03-18T23:28:51.830Z,23.60
2023-03-18T23:32:07.439Z,23.63
2023-03-18T23:34:56.336Z,23.87
2023-03-18T23:38:21.047Z,24.33
2023-03-18T23:41:41.227Z,24.33
2023-03-18T23:44:57.124Z,22.37
2023-03-18T23:48:13.275Z,24.37
2023-03-18T23:51:07.771Z,20.97
2023-03-18T23:54:28.916Z,22.70
2023-03-18T23:57:08.468Z,23.50
